Time;durP1;ratioP1;P1;durP2;ratioP2;P2;SDS_P1;SDS_P2;PMS_P1;PMS_P2;Temp;Humidity;BMP_temperature;BMP_pressure;BME280_temperature;BME280_humidity;BME280_pressure;Samples;Min_cycle;Max_cycle;Signal;HPM_P1;HPM_P2
2024/04/27 00:02:17;;;;;;;2.72;1.00;;;;;;;3.65;53.19;100738.72;5286412;26;20111;-77
2024/04/27 00:04:43;;;;;;;3.10;1.23;;;;;;;3.63;52.93;100735.28;5320128;26;20024;-77
2024/04/27 00:07:09;;;;;;;1.95;0.88;;;;;;;3.50;53.32;100735.47;5317961;26;20005;-77
2024/04/27 00:09:35;;;;;;;1.95;1.08;;;;;;;3.46;53.16;100736.38;5277326;26;20538;-76
2024/04/27 00:12:03;;;;;;;1.70;0.95;;;;;;;3.46;53.38;100738.94;5288711;26;20509;-77
2024/04/27 00:14:29;;;;;;;2.55;1.00;;;;;;;3.43;53.13;100736.41;5295593;26;20364;-77
2024/04/27 00:16:54;;;;;;;2.88;1.00;;;;;;;3.44;53.34;100739.84;5323056;26;20238;-78
2024/04/27 00:19:20;;;;;;;2.92;0.75;;;;;;;3.44;53.03;100745.88;5323909;26;20013;-78
2024/04/27 00:21:45;;;;;;;2.03;1.17;;;;;;;3.38;53.28;100735.59;5301151;26;20001;-78
2024/04/27 00:24:11;;;;;;;2.60;0.88;;;;;;;3.30;53.94;100734.84;5294537;26;20037;-77
2024/04/27 00:26:37;;;;;;;6.20;0.80;;;;;;;3.32;53.52;100736.53;5337776;26;20033;-77
2024/04/27 00:29:02;;;;;;;1.50;1.00;;;;;;;3.23;53.23;100736.63;5294520;26;20697;-76
2024/04/27 00:31:30;;;;;;;2.13;1.27;;;;;;;3.27;53.04;100735.72;5297468;26;20013;-77
2024/04/27 00:33:55;;;;;;;3.05;1.10;;;;;;;3.24;52.92;100727.13;5294868;26;20017;-77
2024/04/27 00:36:21;;;;;;;2.60;0.90;;;;;;;3.23;52.88;100731.47;5295777;26;20005;-77
2024/04/27 00:38:47;;;;;;;1.40;0.60;;;;;;;3.21;52.86;100735.78;5296384;26;20055;-77
2024/04/27 00:41:13;;;;;;;2.00;1.00;;;;;;;3.11;53.05;100740.22;5293895;26;20214;-76
2024/04/27 00:43:39;;;;;;;1.88;0.70;;;;;;;3.10;52.85;100746.22;5320523;26;20013;-76
2024/04/27 00:46:06;;;;;;;4.53;0.93;;;;;;;3.14;52.87;100745.34;5287808;26;20026;-76
2024/04/27 00:48:32;;;;;;;3.58;1.05;;;;;;;3.13;52.98;100746.19;5267074;26;20049;-77
2024/04/27 00:50:59;;;;;;;2.72;0.77;;;;;;;3.11;53.27;100742.78;5338148;26;20020;-76
2024/04/27 00:53:29;;;;;;;2.17;1.02;;;;;;;3.06;53.38;100739.38;5345894;26;20490;-76
2024/04/27 00:56:00;;;;;;;2.28;1.35;;;;;;;3.12;53.39;100734.16;5288152;26;20016;-76
2024/04/27 00:58:27;;;;;;;2.40;0.93;;;;;;;3.27;53.11;100738.31;5266836;26;20008;-77
2024/04/27 01:00:53;;;;;;;2.50;1.00;;;;;;;3.36;53.19;100735.63;5297984;26;20009;-76
2024/04/27 01:03:19;;;;;;;3.15;1.02;;;;;;;3.34;53.01;100733.94;5295240;26;20024;-76
2024/04/27 01:05:44;;;;;;;1.58;0.98;;;;;;;3.43;52.97;100733.00;5282500;26;20104;-78
2024/04/27 01:08:10;;;;;;;2.00;0.90;;;;;;;3.57;52.83;100726.75;5301475;26;20403;-78
2024/04/27 01:10:36;;;;;;;4.43;1.15;;;;;;;3.66;53.04;100724.94;5317585;26;20533;-78
2024/04/27 01:13:03;;;;;;;2.38;1.20;;;;;;;3.78;52.73;100728.19;5295439;26;20004;-77
2024/04/27 01:15:29;;;;;;;2.50;1.45;;;;;;;3.89;52.72;100732.34;5300030;26;20005;-77
2024/04/27 01:17:55;;;;;;;3.22;1.55;;;;;;;3.97;52.52;100733.94;5286071;26;20012;-78
2024/04/27 01:20:21;;;;;;;5.30;1.27;;;;;;;4.05;52.49;100732.97;5347045;26;20529;-77
2024/04/27 01:22:53;;;;;;;4.88;1.02;;;;;;;4.15;52.54;100729.38;5290929;26;20001;-77
2024/04/27 01:25:19;;;;;;;2.92;1.10;;;;;;;4.18;52.33;100729.31;5351237;26;20057;-77
2024/04/27 01:27:46;;;;;;;2.65;1.33;;;;;;;4.25;52.23;100724.91;5291577;26;20013;-76
2024/04/27 01:30:12;;;;;;;3.45;1.48;;;;;;;4.35;52.09;100729.06;5327587;26;20024;-77
2024/04/27 01:32:37;;;;;;;4.30;1.33;;;;;;;4.42;52.41;100721.16;5303150;26;20053;-77
2024/04/27 01:35:03;;;;;;;3.78;1.50;;;;;;;4.48;52.12;100724.53;5355504;26;20093;-76
2024/04/27 01:37:29;;;;;;;2.53;1.45;;;;;;;4.52;52.41;100723.59;5297489;26;20020;-77
2024/04/27 01:39:55;;;;;;;3.00;1.33;;;;;;;4.69;51.97;100726.75;5325414;26;20013;-77
2024/04/27 01:42:20;;;;;;;6.15;1.65;;;;;;;4.81;51.88;100731.72;5308849;26;20236;-76
2024/04/27 01:44:46;;;;;;;2.28;1.45;;;;;;;4.84;51.86;100723.03;5316576;26;20016;-77
2024/04/27 01:47:11;;;;;;;6.40;2.50;;;;;;;4.90;51.77;100737.63;5309165;26;20009;-77
2024/04/27 01:49:37;;;;;;;3.83;2.05;;;;;;;4.93;51.74;100741.03;5320219;26;20420;-76
2024/04/27 01:52:02;;;;;;;4.95;2.28;;;;;;;4.99;51.62;100740.06;5360355;26;20009;-77
2024/04/27 01:54:28;;;;;;;4.40;1.63;;;;;;;4.97;52.08;100742.69;5308431;26;20024;-77
2024/04/27 01:56:53;;;;;;;4.05;2.10;;;;;;;5.10;51.83;100747.59;5291698;26;20193;-76
2024/04/27 01:59:19;;;;;;;2.90;1.58;;;;;;;5.08;51.69;100739.88;5324563;26;20090;-77
2024/04/27 02:01:45;;;;;;;4.40;2.05;;;;;;;5.08;51.76;100741.59;5290111;26;20024;-76
2024/04/27 02:04:10;;;;;;;3.10;1.95;;;;;;;5.09;51.50;100738.16;5291604;26;20001;-75
2024/04/27 02:06:44;;;;;;;5.70;2.55;;;;;;;5.05;51.75;100732.16;5281644;26;20028;-76
2024/04/27 02:09:09;;;;;;;8.65;3.42;;;;;;;4.87;51.84;100735.06;5302000;26;20005;-76
2024/04/27 02:11:35;;;;;;;5.03;2.63;;;;;;;4.73;52.02;100741.34;5313733;26;20026;-76
2024/04/27 02:14:00;;;;;;;6.35;3.10;;;;;;;4.67;52.16;100741.44;5316779;26;20010;-76
2024/04/27 02:19:11;;;;;;;5.65;2.88;;;;;;;4.48;52.75;100735.75;5287775;26;23176;-78
2024/04/27 02:21:39;;;;;;;4.97;2.75;;;;;;;4.41;52.57;100741.91;5286590;26;20354;-77
2024/04/27 02:24:05;;;;;;;7.15;3.25;;;;;;;4.40;52.69;100741.03;5278889;26;20008;-75
2024/04/27 02:26:31;;;;;;;4.68;3.17;;;;;;;4.36;52.91;100742.00;5293734;26;20428;-77
2024/04/27 02:28:56;;;;;;;5.57;3.00;;;;;;;4.36;52.75;100742.00;5284436;26;20006;-77
2024/04/27 02:31:22;;;;;;;5.78;2.80;;;;;;;4.21;52.91;100737.91;5304032;26;21044;-77
2024/04/27 02:33:47;;;;;;;6.78;3.10;;;;;;;4.15;52.91;100740.56;5293283;26;20617;-77
2024/04/27 02:36:14;;;;;;;4.00;2.20;;;;;;;4.20;53.01;100735.31;5289088;26;20704;-75
2024/04/27 02:38:40;;;;;;;8.43;2.72;;;;;;;4.24;53.00;100734.41;5264221;26;20265;-77
2024/04/27 02:41:07;;;;;;;7.32;2.97;;;;;;;4.28;52.81;100741.25;5300625;26;20009;-75
2024/04/27 02:43:32;;;;;;;7.90;3.40;;;;;;;4.19;53.08;100741.41;5290293;26;20021;-76
2024/04/27 02:45:58;;;;;;;6.93;3.40;;;;;;;4.14;52.85;100744.06;5290176;26;20045;-75
2024/04/27 02:48:24;;;;;;;6.18;2.60;;;;;;;4.23;52.89;100743.06;5318088;26;20000;-77
2024/04/27 02:50:50;;;;;;;7.15;3.15;;;;;;;4.22;53.04;100741.34;5283073;26;20009;-78
2024/04/27 02:53:15;;;;;;;8.23;2.83;;;;;;;4.16;53.00;100736.25;5286448;26;20057;-76
2024/04/27 02:55:41;;;;;;;7.00;3.80;;;;;;;4.24;53.19;100733.56;5290860;26;20360;-75
2024/04/27 02:58:07;;;;;;;4.10;2.38;;;;;;;4.20;53.23;100737.91;5302168;26;20788;-76
2024/04/27 03:00:32;;;;;;;5.95;3.45;;;;;;;4.35;53.27;100747.19;5287227;26;20009;-76
2024/04/27 03:02:58;;;;;;;9.23;3.78;;;;;;;4.33;53.02;100736.84;5289283;26;20319;-76
2024/04/27 03:05:24;;;;;;;7.63;3.90;;;;;;;4.38;53.18;100735.03;5291122;26;20483;-76
2024/04/27 03:07:50;;;;;;;9.88;4.20;;;;;;;4.43;52.78;100743.59;5303481;26;20009;-76
2024/04/27 03:10:17;;;;;;;11.15;3.90;;;;;;;4.48;52.81;100743.50;5333152;26;20442;-76
2024/04/27 03:12:42;;;;;;;6.78;3.80;;;;;;;4.58;52.45;100739.03;5275209;26;20065;-75
2024/04/27 03:15:08;;;;;;;8.63;4.30;;;;;;;4.55;52.44;100744.25;5324846;26;20005;-75
2024/04/27 03:17:34;;;;;;;9.18;4.35;;;;;;;4.58;52.31;100733.84;5295960;26;20016;-75
2024/04/27 03:20:01;;;;;;;6.20;3.10;;;;;;;4.64;52.31;100744.09;5293962;26;20010;-75
2024/04/27 03:22:26;;;;;;;9.30;4.72;;;;;;;4.67;52.09;100733.69;5285776;26;20020;-76
2024/04/27 03:24:52;;;;;;;5.90;3.88;;;;;;;4.62;52.12;100732.91;5295165;26;20076;-76
2024/04/27 03:27:20;;;;;;;8.85;3.55;;;;;;;4.67;51.75;100735.44;5318254;26;20013;-78
2024/04/27 03:29:47;;;;;;;8.25;3.67;;;;;;;4.69;51.39;100724.16;5346366;26;20524;-75
2024/04/27 03:32:13;;;;;;;5.50;3.40;;;;;;;4.68;51.45;100726.78;5289400;26;20024;-76
2024/04/27 03:34:38;;;;;;;5.32;3.10;;;;;;;4.63;51.81;100722.53;5297639;26;20005;-76
2024/04/27 03:37:04;;;;;;;7.38;4.25;;;;;;;4.69;51.61;100724.16;5301407;26;20043;-76
2024/04/27 03:39:29;;;;;;;7.80;4.03;;;;;;;4.78;51.44;100721.41;5285109;26;20005;-75
2024/04/27 03:41:54;;;;;;;9.13;4.43;;;;;;;4.76;51.28;100720.56;5292557;26;20010;-76
2024/04/27 03:44:20;;;;;;;7.75;3.78;;;;;;;4.72;51.34;100725.84;5268120;26;20001;-75
2024/04/27 03:46:45;;;;;;;7.75;4.70;;;;;;;4.74;51.10;100722.31;5284591;26;20137;-77
2024/04/27 03:49:11;;;;;;;8.57;4.82;;;;;;;4.68;51.61;100717.28;5292590;26;20016;-76
2024/04/27 03:51:37;;;;;;;5.53;3.80;;;;;;;4.62;51.75;100720.81;5289705;26;20017;-76
2024/04/27 03:54:02;;;;;;;8.95;4.60;;;;;;;4.58;51.85;100723.50;5288418;26;20336;-75
2024/04/27 03:56:28;;;;;;;8.07;4.45;;;;;;;4.68;51.98;100725.06;5290827;26;20151;-75
2024/04/27 03:58:53;;;;;;;7.90;4.20;;;;;;;4.73;51.88;100720.63;5290643;26;20501;-76
2024/04/27 04:01:19;;;;;;;9.95;4.13;;;;;;;4.75;51.65;100725.78;5333031;26;20009;-76
2024/04/27 04:03:45;;;;;;;8.75;5.13;;;;;;;4.78;51.99;100728.31;5281085;26;20012;-77
2024/04/27 04:06:12;;;;;;;6.18;4.30;;;;;;;4.79;52.00;100725.72;5291740;26;20009;-75
2024/04/27 04:08:38;;;;;;;8.18;4.57;;;;;;;4.83;51.86;100724.78;5280223;26;20010;-75
2024/04/27 04:11:06;;;;;;;6.93;3.95;;;;;;;4.91;51.61;100729.00;5290898;26;20582;-74
2024/04/27 04:13:32;;;;;;;7.13;3.85;;;;;;;4.89;51.77;100733.34;5262970;26;20086;-78
2024/04/27 04:15:58;;;;;;;9.55;4.60;;;;;;;4.87;51.74;100735.06;5317494;26;20038;-76
2024/04/27 04:18:23;;;;;;;12.05;5.00;;;;;;;4.78;51.97;100741.25;5317827;26;20088;-76
2024/04/27 04:20:49;;;;;;;7.57;4.85;;;;;;;4.81;51.86;100742.06;5270226;26;21060;-76
2024/04/27 04:23:14;;;;;;;6.85;4.97;;;;;;;4.87;51.90;100741.09;5300613;26;20012;-76
2024/04/27 04:25:41;;;;;;;10.63;4.53;;;;;;;4.94;51.98;100742.72;5284540;26;20083;-76
2024/04/27 04:28:08;;;;;;;9.52;4.28;;;;;;;4.99;52.13;100745.25;5314389;26;20005;-77
2024/04/27 04:30:33;;;;;;;10.23;4.88;;;;;;;4.97;52.19;100752.19;5291315;26;20006;-76
2024/04/27 04:32:59;;;;;;;9.63;4.70;;;;;;;4.96;52.20;100753.91;5290265;26;20016;-75
2024/04/27 04:35:24;;;;;;;11.45;5.60;;;;;;;5.02;52.07;100750.34;5347127;26;20005;-76
2024/04/27 04:37:49;;;;;;;7.30;3.38;;;;;;;5.12;52.09;100753.63;5285302;26;20086;-76
2024/04/27 04:40:15;;;;;;;10.88;5.38;;;;;;;5.25;51.75;100752.50;5286467;26;20017;-78
2024/04/27 04:42:40;;;;;;;9.60;5.43;;;;;;;5.19;51.76;100748.31;5287936;26;20411;-75
2024/04/27 04:45:06;;;;;;;8.98;4.78;;;;;;;5.07;51.73;100748.53;5290365;26;20115;-75
2024/04/27 04:47:32;;;;;;;9.60;4.82;;;;;;;5.02;52.29;100748.63;5281544;26;20041;-75
2024/04/27 04:49:57;;;;;;;8.40;4.20;;;;;;;5.12;52.60;100749.28;5302845;26;20004;-76
2024/04/27 04:52:25;;;;;;;9.32;4.43;;;;;;;5.24;52.47;100756.84;5285258;26;20481;-77
2024/04/27 04:54:51;;;;;;;8.20;5.35;;;;;;;5.18;52.22;100746.59;5302637;26;20686;-76
2024/04/27 04:57:16;;;;;;;8.05;5.32;;;;;;;5.19;52.36;100748.31;5286933;26;20024;-76
2024/04/27 04:59:42;;;;;;;9.15;5.90;;;;;;;5.15;52.42;100746.66;5284474;26;20239;-76
2024/04/27 05:02:07;;;;;;;10.73;6.05;;;;;;;5.17;53.00;100751.81;5283389;26;20429;-76
2024/04/27 05:04:33;;;;;;;9.68;6.13;;;;;;;5.11;52.96;100750.19;5314393;26;20404;-75
2024/04/27 05:06:58;;;;;;;8.68;5.63;;;;;;;5.30;52.92;100765.38;5291428;26;20449;-77
2024/04/27 05:09:24;;;;;;;9.32;5.65;;;;;;;5.42;52.83;100762.53;5257490;26;20640;-75
2024/04/27 05:11:50;;;;;;;10.00;6.20;;;;;;;5.59;52.40;100763.06;5289459;26;20028;-75
2024/04/27 05:14:15;;;;;;;11.43;6.32;;;;;;;5.79;52.67;100753.97;5318474;26;20040;-75
2024/04/27 05:16:41;;;;;;;12.35;6.85;;;;;;;6.21;51.39;100759.06;5338913;26;20487;-75
2024/04/27 05:19:06;;;;;;;10.15;5.97;;;;;;;6.34;50.37;100759.69;5284210;26;20013;-76
2024/04/27 05:21:32;;;;;;;9.18;5.75;;;;;;;6.18;50.08;100765.19;5301375;26;20004;-76
2024/04/27 05:23:57;;;;;;;15.38;6.13;;;;;;;6.03;50.92;100757.75;5324247;26;20141;-76
2024/04/27 05:26:23;;;;;;;10.45;5.95;;;;;;;6.03;51.32;100769.00;5328455;26;22290;-76
2024/04/27 05:28:48;;;;;;;9.43;6.05;;;;;;;5.94;51.29;100764.00;5312704;26;20135;-76
2024/04/27 05:31:14;;;;;;;12.68;6.72;;;;;;;6.01;51.59;100762.97;5287372;26;20046;-75
2024/04/27 05:33:39;;;;;;;13.48;7.80;;;;;;;6.25;51.80;100766.75;5286668;26;20005;-76
2024/04/27 05:36:05;;;;;;;11.95;6.80;;;;;;;6.41;50.92;100769.88;5282859;26;20021;-76
2024/04/27 05:38:31;;;;;;;9.00;6.00;;;;;;;6.43;50.36;100770.69;5290376;26;20082;-76
2024/04/27 05:40:56;;;;;;;12.75;6.10;;;;;;;6.55;50.35;100763.47;5285732;26;20019;-76
2024/04/27 05:43:21;;;;;;;9.98;6.28;;;;;;;6.82;50.24;100768.00;5293725;26;20010;-75
2024/04/27 05:45:47;;;;;;;11.07;6.75;;;;;;;7.47;47.96;100771.44;5337263;26;20016;-75
2024/04/27 05:48:12;;;;;;;14.20;6.43;;;;;;;7.47;48.21;100766.22;5303253;26;20014;-76
2024/04/27 05:50:39;;;;;;;9.18;6.05;;;;;;;7.40;48.23;100767.28;5291183;26;20066;-75
2024/04/27 05:53:12;;;;;;;11.10;6.38;;;;;;;7.48;47.70;100765.31;5288193;26;20009;-76
2024/04/27 05:55:38;;;;;;;13.65;7.85;;;;;;;7.63;48.56;100764.06;5292410;26;20049;-75
2024/04/27 05:58:04;;;;;;;12.30;7.53;;;;;;;9.60;45.31;100760.97;5288140;26;20025;-76
2024/04/27 06:00:29;;;;;;;11.23;6.88;;;;;;;10.85;40.69;100767.34;5313559;26;20016;-75
2024/04/27 06:02:55;;;;;;;13.65;7.97;;;;;;;11.60;39.75;100760.53;5286196;26;20020;-76
2024/04/27 06:05:21;;;;;;;9.65;6.20;;;;;;;11.44;39.41;100763.84;5289924;26;20017;-76
2024/04/27 06:07:46;;;;;;;13.02;6.93;;;;;;;11.42;38.75;100762.22;5290255;26;20009;-76
2024/04/27 06:10:12;;;;;;;13.82;7.72;;;;;;;11.55;39.58;100760.72;5343075;26;20016;-76
2024/04/27 06:12:38;;;;;;;13.63;7.97;;;;;;;10.86;39.35;100752.47;5288111;26;20480;-75
2024/04/27 06:15:04;;;;;;;13.43;7.53;;;;;;;11.01;40.32;100760.50;5293519;26;20447;-75
2024/04/27 06:17:30;;;;;;;14.55;8.20;;;;;;;12.27;38.28;100765.22;5268443;26;20460;-74
2024/04/27 06:19:55;;;;;;;10.77;7.32;;;;;;;12.94;37.48;100762.78;5298342;26;20023;-76
2024/04/27 06:22:21;;;;;;;11.07;7.07;;;;;;;14.01;36.29;100756.16;5293037;26;20041;-75
2024/04/27 06:24:46;;;;;;;11.02;7.47;;;;;;;13.90;34.25;100756.75;5289755;26;20009;-76
2024/04/27 06:27:12;;;;;;;12.43;8.15;;;;;;;13.56;34.72;100749.84;5290392;26;20014;-76
2024/04/27 06:29:38;;;;;;;15.48;8.55;;;;;;;12.90;35.87;100758.63;5294668;26;20005;-76
2024/04/27 06:32:04;;;;;;;14.88;8.80;;;;;;;11.33;38.09;100758.25;5303935;26;20448;-76
2024/04/27 06:34:29;;;;;;;10.35;7.53;;;;;;;10.40;40.87;100760.47;5292562;26;20456;-75
2024/04/27 06:36:55;;;;;;;14.23;9.35;;;;;;;9.94;41.56;100757.09;5343426;26;20314;-76
2024/04/27 06:39:20;;;;;;;17.40;9.00;;;;;;;9.49;42.93;100771.78;5301673;26;20866;-76
2024/04/27 06:41:46;;;;;;;16.80;8.75;;;;;;;9.20;43.85;100765.03;5287153;26;20417;-76
2024/04/27 06:44:12;;;;;;;15.63;9.10;;;;;;;9.11;44.37;100760.16;5271046;26;20104;-75
2024/04/27 06:46:38;;;;;;;13.82;8.20;;;;;;;9.56;43.61;100762.81;5316821;26;20405;-76
2024/04/27 06:49:04;;;;;;;15.23;9.10;;;;;;;11.42;40.62;100757.84;5285970;26;20291;-75
2024/04/27 06:51:30;;;;;;;18.30;10.65;;;;;;;12.60;38.06;100756.59;5314474;26;20016;-74
2024/04/27 06:53:55;;;;;;;15.23;8.77;;;;;;;13.11;36.71;100748.75;5302379;26;20033;-75
2024/04/27 06:56:21;;;;;;;13.70;8.25;;;;;;;12.93;36.18;100750.56;5293821;26;20009;-76
2024/04/27 06:58:47;;;;;;;15.05;8.50;;;;;;;13.35;36.63;100751.88;5294872;26;20029;-75
2024/04/27 07:01:13;;;;;;;16.30;8.65;;;;;;;13.82;36.16;100756.34;5298339;26;21224;-75
2024/04/27 07:03:39;;;;;;;16.52;9.57;;;;;;;14.27;34.36;100752.03;5264231;26;20291;-76
2024/04/27 07:06:05;;;;;;;16.63;9.02;;;;;;;13.66;35.83;100750.25;5286407;26;20399;-76
2024/04/27 07:08:31;;;;;;;17.90;9.55;;;;;;;13.63;36.01;100755.66;5287851;26;20513;-75
2024/04/27 07:10:57;;;;;;;14.75;8.98;;;;;;;14.25;36.17;100759.16;5286921;26;20323;-76
2024/04/27 07:13:23;;;;;;;15.23;9.57;;;;;;;13.96;36.18;100752.09;5266642;26;20017;-76
2024/04/27 07:15:49;;;;;;;16.63;9.68;;;;;;;13.99;35.69;100750.16;5307454;26;20386;-75
2024/04/27 07:18:14;;;;;;;12.52;8.32;;;;;;;13.81;36.15;100749.41;5300868;26;20057;-75
2024/04/27 07:20:40;;;;;;;20.80;10.02;;;;;;;14.09;36.10;100747.84;5293144;26;20028;-75
2024/04/27 07:23:06;;;;;;;15.15;9.18;;;;;;;14.66;34.86;100745.44;5284365;26;20027;-75
2024/04/27 07:25:32;;;;;;;15.85;9.50;;;;;;;15.59;33.41;100745.91;5293639;26;20023;-76
2024/04/27 07:27:57;;;;;;;17.23;9.18;;;;;;;16.48;31.45;100737.50;5342623;26;20009;-76
2024/04/27 07:30:23;;;;;;;15.32;9.05;;;;;;;16.88;30.55;100741.91;5292673;26;20006;-75
2024/04/27 07:32:49;;;;;;;14.63;9.32;;;;;;;17.77;29.42;100738.28;5295154;26;20045;-75
2024/04/27 07:35:14;;;;;;;14.52;9.98;;;;;;;17.80;29.27;100732.78;5291397;26;20008;-76
2024/04/27 07:37:40;;;;;;;14.38;9.30;;;;;;;16.60;30.26;100738.50;5291903;26;20008;-75
2024/04/27 07:40:06;;;;;;;16.58;9.52;;;;;;;15.70;31.30;100739.97;5303806;26;20008;-75
2024/04/27 07:42:32;;;;;;;17.10;10.30;;;;;;;15.16;32.75;100741.50;5318307;26;20012;-76
2024/04/27 07:44:57;;;;;;;16.35;10.07;;;;;;;14.94;32.56;100738.50;5289894;26;20021;-75
2024/04/27 07:47:23;;;;;;;16.88;10.20;;;;;;;14.82;33.56;100741.88;5289180;26;20005;-75
2024/04/27 07:49:49;;;;;;;15.13;9.88;;;;;;;14.61;34.35;100736.09;5296148;26;20024;-75
2024/04/27 07:52:14;;;;;;;16.05;9.52;;;;;;;14.65;34.39;100735.81;5289505;26;20532;-76
2024/04/27 07:54:40;;;;;;;14.07;8.85;;;;;;;15.06;33.69;100729.88;5294918;26;20009;-76
2024/04/27 07:57:05;;;;;;;14.48;9.05;;;;;;;15.78;32.84;100735.06;5300657;26;20001;-75
2024/04/27 07:59:31;;;;;;;17.23;9.48;;;;;;;15.49;32.13;100727.22;5293171;26;20025;-75
2024/04/27 08:01:56;;;;;;;18.02;10.07;;;;;;;15.12;32.45;100733.91;5289925;26;20021;-76
2024/04/27 08:04:22;;;;;;;14.23;8.93;;;;;;;15.49;33.00;100729.03;5289410;26;20005;-76
2024/04/27 08:06:47;;;;;;;25.95;14.18;;;;;;;15.72;31.76;100722.28;5277686;26;20012;-75
2024/04/27 08:09:13;;;;;;;15.35;9.45;;;;;;;15.37;31.71;100722.72;5295230;26;20019;-76
2024/04/27 08:11:38;;;;;;;14.50;8.88;;;;;;;14.95;31.92;100721.78;5291366;26;20016;-75
2024/04/27 08:14:04;;;;;;;14.05;8.82;;;;;;;15.03;32.50;100730.03;5289745;26;20117;-75
2024/04/27 08:16:29;;;;;;;20.98;11.30;;;;;;;15.27;32.32;100724.25;5286652;26;20543;-76
2024/04/27 08:18:55;;;;;;;29.48;12.32;;;;;;;15.95;31.83;100723.41;5293415;26;20010;-75
2024/04/27 08:21:20;;;;;;;16.65;10.07;;;;;;;15.84;31.83;100721.50;5288311;26;20032;-75
2024/04/27 08:23:45;;;;;;;14.10;9.52;;;;;;;16.12;32.54;100725.00;5269528;26;20017;-76
2024/04/27 08:26:11;;;;;;;12.32;8.50;;;;;;;16.63;30.69;100719.81;5340574;26;20068;-76
2024/04/27 08:28:37;;;;;;;15.82;8.75;;;;;;;16.98;30.31;100720.06;5303287;26;20009;-75
2024/04/27 08:31:03;;;;;;;14.70;9.13;;;;;;;17.13;29.74;100723.41;5298651;26;20005;-75
2024/04/27 08:33:32;;;;;;;18.13;9.55;;;;;;;16.94;30.42;100717.72;5299698;26;20024;-75
2024/04/27 08:35:58;;;;;;;19.10;8.85;;;;;;;16.78;31.59;100708.25;5294230;26;20009;-75
2024/04/27 08:38:23;;;;;;;15.93;7.93;;;;;;;16.65;30.58;100722.34;5286498;26;20021;-76
2024/04/27 08:40:49;;;;;;;15.32;9.27;;;;;;;16.47;31.03;100717.38;5291960;26;20010;-74
2024/04/27 08:43:15;;;;;;;30.30;13.10;;;;;;;16.06;31.84;100715.69;5295615;26;20361;-76
2024/04/27 08:45:44;;;;;;;18.45;9.77;;;;;;;15.78;32.87;100721.88;5271408;26;20004;-77
2024/04/27 08:48:12;;;;;;;14.15;9.68;;;;;;;15.78;32.84;100735.06;5291506;26;20005;-75
2024/04/27 08:50:40;;;;;;;22.25;10.40;;;;;;;15.89;33.41;100729.94;5320158;26;20005;-75
2024/04/27 08:53:05;;;;;;;18.08;10.45;;;;;;;15.94;33.60;100727.00;5286347;26;20460;-75
2024/04/27 08:55:31;;;;;;;20.33;11.85;;;;;;;15.34;34.11;100729.03;5289910;26;20414;-75
2024/04/27 08:57:57;;;;;;;20.00;11.70;;;;;;;15.36;34.98;100731.56;5282872;26;20016;-76
2024/04/27 09:00:24;;;;;;;19.70;10.82;;;;;;;15.33;34.93;100737.88;5291300;26;20629;-76
2024/04/27 09:02:50;;;;;;;18.67;10.98;;;;;;;14.74;34.98;100737.91;5273787;26;20137;-74
2024/04/27 09:05:16;;;;;;;18.27;10.57;;;;;;;14.53;36.22;100734.78;5286275;26;20046;-75
2024/04/27 09:07:41;;;;;;;23.38;11.13;;;;;;;14.38;37.26;100729.53;5288771;26;20001;-76
2024/04/27 09:10:08;;;;;;;21.17;11.63;;;;;;;14.59;37.17;100736.22;5284489;26;20006;-76
2024/04/27 09:12:38;;;;;;;17.17;11.07;;;;;;;14.31;37.47;100737.78;5279785;26;20017;-75
2024/04/27 09:15:09;;;;;;;20.40;11.27;;;;;;;13.94;38.28;100729.38;5286478;26;20013;-76
2024/04/27 09:17:35;;;;;;;17.35;10.75;;;;;;;14.12;38.43;100726.63;5282402;26;20233;-75
2024/04/27 09:20:12;;;;;;;17.55;11.23;;;;;;;14.38;37.82;100721.66;5284834;26;20019;-76
2024/04/27 09:22:38;;;;;;;17.42;9.88;;;;;;;14.03;38.24;100721.91;5286147;26;20009;-75
2024/04/27 09:25:04;;;;;;;19.73;11.45;;;;;;;14.18;38.27;100722.81;5315478;26;20021;-76
2024/04/27 09:27:30;;;;;;;16.52;10.50;;;;;;;14.31;37.91;100722.00;5296185;26;20452;-76
2024/04/27 09:29:57;;;;;;;23.45;10.65;;;;;;;14.55;37.72;100716.28;5292317;26;20024;-75
2024/04/27 09:32:23;;;;;;;22.67;12.00;;;;;;;14.60;37.43;100719.47;5282041;26;20592;-75
2024/04/27 09:34:48;;;;;;;17.90;10.90;;;;;;;14.79;36.71;100713.09;5289641;26;20024;-74
2024/04/27 09:37:18;;;;;;;21.25;11.02;;;;;;;14.54;37.59;100711.94;5282221;26;20391;-76
2024/04/27 09:39:56;;;;;;;14.88;9.73;;;;;;;14.72;37.37;100708.25;5288054;26;20020;-76
2024/04/27 09:42:21;;;;;;;16.98;10.07;;;;;;;14.53;37.23;100710.28;5291855;26;20897;-75
2024/04/27 09:44:57;;;;;;;17.35;10.27;;;;;;;14.73;36.43;100704.66;5264655;26;20012;-76
2024/04/27 09:47:33;;;;;;;19.92;10.30;;;;;;;14.50;37.32;100710.44;5298298;26;20820;-75
2024/04/27 09:50:04;;;;;;;12.48;8.85;;;;;;;14.39;37.60;100705.81;5286389;26;20016;-75
2024/04/27 09:52:32;;;;;;;18.50;10.38;;;;;;;14.55;37.87;100708.41;5291565;26;20091;-75
2024/04/27 09:54:59;;;;;;;19.67;10.02;;;;;;;14.84;36.88;100703.19;5297320;26;20528;-74
2024/04/27 09:57:25;;;;;;;16.75;10.07;;;;;;;15.13;36.47;100699.59;5297921;26;20452;-76
2024/04/27 09:59:50;;;;;;;15.32;9.38;;;;;;;15.28;36.19;100686.44;5271892;26;20353;-75
2024/04/27 10:02:17;;;;;;;13.85;7.50;;;;;;;15.93;34.55;100685.75;5289289;26;20402;-75
2024/04/27 10:04:43;;;;;;;11.48;7.30;;;;;;;15.65;35.31;100686.72;5314377;26;20031;-75
2024/04/27 10:07:09;;;;;;;16.17;8.25;;;;;;;15.68;35.98;100689.16;5276124;26;20626;-75
2024/04/27 10:09:40;;;;;;;11.18;7.90;;;;;;;15.44;35.25;100692.44;5289359;26;20009;-76
2024/04/27 10:12:21;;;;;;;11.90;6.57;;;;;;;14.82;36.53;100699.78;5283175;26;20005;-75
2024/04/27 10:14:49;;;;;;;9.70;6.30;;;;;;;14.47;36.46;100695.69;5281372;26;20010;-77
2024/04/27 10:17:19;;;;;;;11.38;8.43;;;;;;;14.91;37.08;100691.31;5285023;26;20021;-75
2024/04/27 10:19:49;;;;;;;11.68;8.00;;;;;;;15.09;36.88;100692.81;5282362;26;20022;-75
2024/04/27 10:22:31;;;;;;;11.30;7.32;;;;;;;15.23;35.63;100689.34;5295646;26;20233;-75
2024/04/27 10:24:58;;;;;;;12.30;7.22;;;;;;;14.73;36.09;100688.03;5283319;26;20028;-75
2024/04/27 10:27:24;;;;;;;11.13;7.45;;;;;;;14.96;35.86;100692.72;5289123;26;20441;-75
2024/04/27 10:29:49;;;;;;;12.07;6.80;;;;;;;15.77;35.52;100689.44;5283237;26;20372;-75
2024/04/27 10:32:18;;;;;;;15.60;8.05;;;;;;;15.32;35.85;100688.78;5286245;26;20575;-76
2024/04/27 10:34:46;;;;;;;11.85;7.38;;;;;;;15.90;34.94;100678.06;5280740;26;20008;-75
2024/04/27 10:37:12;;;;;;;11.85;7.10;;;;;;;16.41;34.06;100683.47;5280165;26;20009;-75
2024/04/27 10:39:49;;;;;;;11.27;7.22;;;;;;;17.58;34.09;100673.56;5292064;26;20359;-76
2024/04/27 10:42:16;;;;;;;16.05;7.45;;;;;;;16.99;32.31;100678.66;5336943;26;20404;-74
2024/04/27 10:44:41;;;;;;;15.32;7.43;;;;;;;16.27;33.73;100684.41;5314293;26;20354;-75
2024/04/27 10:47:06;;;;;;;10.35;7.63;;;;;;;16.03;34.46;100678.16;5268958;26;20006;-75
2024/04/27 10:49:34;;;;;;;11.90;6.90;;;;;;;15.78;34.69;100685.00;5296949;26;20492;-74
2024/04/27 10:51:59;;;;;;;8.23;6.30;;;;;;;16.07;35.42;100679.63;5281388;26;20020;-75
2024/04/27 10:54:25;;;;;;;10.98;6.18;;;;;;;16.03;34.60;100678.16;5285735;26;20045;-75
2024/04/27 10:56:50;;;;;;;9.95;6.15;;;;;;;15.64;34.13;100674.50;5285263;26;20349;-76
2024/04/27 10:59:16;;;;;;;9.55;5.88;;;;;;;15.63;34.16;100681.56;5285945;26;20024;-75
2024/04/27 11:01:42;;;;;;;7.25;5.65;;;;;;;15.61;35.13;100680.81;5288271;26;20256;-75
2024/04/27 11:04:08;;;;;;;7.10;6.00;;;;;;;15.92;34.76;100676.19;5289152;26;20729;-76
2024/04/27 11:06:36;;;;;;;15.13;5.15;;;;;;;16.21;33.32;100682.19;5282798;26;20020;-74
2024/04/27 11:09:06;;;;;;;6.50;4.53;;;;;;;16.61;32.29;100676.84;5314401;26;20013;-75
2024/04/27 11:11:32;;;;;;;8.10;5.85;;;;;;;17.12;31.38;100663.63;5292247;26;20010;-76
2024/04/27 11:13:58;;;;;;;9.05;4.53;;;;;;;17.08;32.60;100667.44;5293522;26;20006;-75
2024/04/27 11:16:24;;;;;;;8.68;5.30;;;;;;;16.60;32.73;100670.72;5317276;26;20156;-74
2024/04/27 11:18:50;;;;;;;10.38;4.90;;;;;;;15.24;34.26;100664.72;5285563;26;20068;-75
2024/04/27 11:21:23;;;;;;;7.78;4.25;;;;;;;15.52;34.73;100669.06;5285402;26;20560;-76
2024/04/27 11:23:48;;;;;;;10.38;4.97;;;;;;;15.29;33.92;100662.66;5338030;26;20012;-75